sensor_id;sensor_type;location;lat;lon;timestamp;temperature;humidity
68128;SHT30;54931;52.098;21.006;2023-04-24T00:01:28;10.46;62.47
68128;SHT30;54931;52.098;21.006;2023-04-24T00:03:56;10.45;62.30
68128;SHT30;54931;52.098;21.006;2023-04-24T00:06:26;10.42;62.23
68128;SHT30;54931;52.098;21.006;2023-04-24T00:09:00;10.42;62.49
68128;SHT30;54931;52.098;21.006;2023-04-24T00:11:28;10.42;62.59
68128;SHT30;54931;52.098;21.006;2023-04-24T00:13:56;10.41;62.54
68128;SHT30;54931;52.098;21.006;2023-04-24T00:16:24;10.39;62.42
68128;SHT30;54931;52.098;21.006;2023-04-24T00:18:51;10.35;62.41
68128;SHT30;54931;52.098;21.006;2023-04-24T00:21:23;10.30;62.42
68128;SHT30;54931;52.098;21.006;2023-04-24T00:23:52;10.26;62.67
68128;SHT30;54931;52.098;21.006;2023-04-24T00:26:20;10.28;63.06
68128;SHT30;54931;52.098;21.006;2023-04-24T00:28:49;10.31;62.98
68128;SHT30;54931;52.098;21.006;2023-04-24T00:31:16;10.32;62.92
68128;SHT30;54931;52.098;21.006;2023-04-24T00:33:45;10.32;62.98
68128;SHT30;54931;52.098;21.006;2023-04-24T00:36:12;10.34;63.09
68128;SHT30;54931;52.098;21.006;2023-04-24T00:38:40;10.38;62.97
68128;SHT30;54931;52.098;21.006;2023-04-24T00:41:08;10.39;63.00
68128;SHT30;54931;52.098;21.006;2023-04-24T00:43:36;10.40;63.17
68128;SHT30;54931;52.098;21.006;2023-04-24T00:46:03;10.45;63.35
68128;SHT30;54931;52.098;21.006;2023-04-24T00:48:31;10.48;63.22
68128;SHT30;54931;52.098;21.006;2023-04-24T00:50:59;10.52;63.29
68128;SHT30;54931;52.098;21.006;2023-04-24T00:53:26;10.64;63.18
68128;SHT30;54931;52.098;21.006;2023-04-24T00:55:54;10.75;62.90
68128;SHT30;54931;52.098;21.006;2023-04-24T00:58:22;10.83;62.73
68128;SHT30;54931;52.098;21.006;2023-04-24T01:00:50;10.92;62.69
68128;SHT30;54931;52.098;21.006;2023-04-24T01:03:20;10.97;62.58
68128;SHT30;54931;52.098;21.006;2023-04-24T01:05:55;11.07;62.42
68128;SHT30;54931;52.098;21.006;2023-04-24T01:08:23;11.13;62.18
68128;SHT30;54931;52.098;21.006;2023-04-24T01:10:55;11.19;61.99
68128;SHT30;54931;52.098;21.006;2023-04-24T01:13:24;11.17;61.93
68128;SHT30;54931;52.098;21.006;2023-04-24T01:15:52;11.17;61.85
68128;SHT30;54931;52.098;21.006;2023-04-24T01:18:19;11.13;61.74
68128;SHT30;54931;52.098;21.006;2023-04-24T01:20:48;11.13;61.90
68128;SHT30;54931;52.098;21.006;2023-04-24T01:23:24;11.11;61.95
68128;SHT30;54931;52.098;21.006;2023-04-24T01:25:54;11.07;62.07
68128;SHT30;54931;52.098;21.006;2023-04-24T01:28:22;11.02;62.05
68128;SHT30;54931;52.098;21.006;2023-04-24T01:30:50;10.95;62.50
68128;SHT30;54931;52.098;21.006;2023-04-24T01:33:18;10.88;62.89
68128;SHT30;54931;52.098;21.006;2023-04-24T01:35:48;10.82;63.02
68128;SHT30;54931;52.098;21.006;2023-04-24T01:38:17;10.81;63.10
68128;SHT30;54931;52.098;21.006;2023-04-24T01:40:45;10.81;63.09
68128;SHT30;54931;52.098;21.006;2023-04-24T01:43:13;10.75;63.06
68128;SHT30;54931;52.098;21.006;2023-04-24T01:45:41;10.69;63.30
68128;SHT30;54931;52.098;21.006;2023-04-24T01:48:09;10.64;63.79
68128;SHT30;54931;52.098;21.006;2023-04-24T01:50:39;10.63;64.00
68128;SHT30;54931;52.098;21.006;2023-04-24T01:53:06;10.58;64.27
68128;SHT30;54931;52.098;21.006;2023-04-24T01:55:34;10.55;64.19
68128;SHT30;54931;52.098;21.006;2023-04-24T01:58:02;10.52;64.29
68128;SHT30;54931;52.098;21.006;2023-04-24T02:00:30;10.49;64.23
68128;SHT30;54931;52.098;21.006;2023-04-24T02:02:57;10.45;64.37
68128;SHT30;54931;52.098;21.006;2023-04-24T02:05:25;10.41;64.72
68128;SHT30;54931;52.098;21.006;2023-04-24T02:07:53;10.39;64.93
68128;SHT30;54931;52.098;21.006;2023-04-24T02:10:20;10.38;64.99
68128;SHT30;54931;52.098;21.006;2023-04-24T02:12:48;10.38;64.84
68128;SHT30;54931;52.098;21.006;2023-04-24T02:15:16;10.36;64.72
68128;SHT30;54931;52.098;21.006;2023-04-24T02:17:44;10.30;64.72
68128;SHT30;54931;52.098;21.006;2023-04-24T02:20:12;10.27;64.89
68128;SHT30;54931;52.098;21.006;2023-04-24T02:22:40;10.26;64.91
68128;SHT30;54931;52.098;21.006;2023-04-24T02:25:08;10.26;65.04
68128;SHT30;54931;52.098;21.006;2023-04-24T02:27:36;10.20;64.91
68128;SHT30;54931;52.098;21.006;2023-04-24T02:30:04;10.14;64.88
68128;SHT30;54931;52.098;21.006;2023-04-24T02:32:34;10.05;65.28
68128;SHT30;54931;52.098;21.006;2023-04-24T02:35:02;10.01;65.60
68128;SHT30;54931;52.098;21.006;2023-04-24T02:37:31;9.93;65.62
68128;SHT30;54931;52.098;21.006;2023-04-24T02:39:58;9.88;65.84
68128;SHT30;54931;52.098;21.006;2023-04-24T02:42:26;9.83;66.07
68128;SHT30;54931;52.098;21.006;2023-04-24T02:44:53;9.78;66.11
68128;SHT30;54931;52.098;21.006;2023-04-24T02:47:21;9.70;66.11
68128;SHT30;54931;52.098;21.006;2023-04-24T02:49:48;9.61;66.18
68128;SHT30;54931;52.098;21.006;2023-04-24T02:52:16;9.51;66.33
68128;SHT30;54931;52.098;21.006;2023-04-24T02:54:44;9.40;66.51
68128;SHT30;54931;52.098;21.006;2023-04-24T02:57:11;9.30;66.80
68128;SHT30;54931;52.098;21.006;2023-04-24T02:59:39;9.21;67.00
68128;SHT30;54931;52.098;21.006;2023-04-24T03:02:06;9.14;67.36
68128;SHT30;54931;52.098;21.006;2023-04-24T03:04:34;9.13;67.56
68128;SHT30;54931;52.098;21.006;2023-04-24T03:07:01;9.08;67.60
68128;SHT30;54931;52.098;21.006;2023-04-24T03:09:29;9.03;67.76
68128;SHT30;54931;52.098;21.006;2023-04-24T03:11:57;8.97;67.79
68128;SHT30;54931;52.098;21.006;2023-04-24T03:14:25;8.90;67.93
68128;SHT30;54931;52.098;21.006;2023-04-24T03:16:52;8.82;68.23
68128;SHT30;54931;52.098;21.006;2023-04-24T03:19:20;8.76;68.55
68128;SHT30;54931;52.098;21.006;2023-04-24T03:21:48;8.73;68.88
68128;SHT30;54931;52.098;21.006;2023-04-24T03:24:16;8.69;68.93
68128;SHT30;54931;52.098;21.006;2023-04-24T03:26:44;8.69;69.05
68128;SHT30;54931;52.098;21.006;2023-04-24T03:29:11;8.71;69.00
68128;SHT30;54931;52.098;21.006;2023-04-24T03:31:40;8.71;69.09
68128;SHT30;54931;52.098;21.006;2023-04-24T03:34:07;8.66;69.13
68128;SHT30;54931;52.098;21.006;2023-04-24T03:36:35;8.63;69.14
68128;SHT30;54931;52.098;21.006;2023-04-24T03:39:02;8.62;69.53
68128;SHT30;54931;52.098;21.006;2023-04-24T03:41:30;8.65;69.67
68128;SHT30;54931;52.098;21.006;2023-04-24T03:43:58;8.67;69.54
68128;SHT30;54931;52.098;21.006;2023-04-24T03:46:28;8.69;69.68
68128;SHT30;54931;52.098;21.006;2023-04-24T03:48:56;8.73;69.64
68128;SHT30;54931;52.098;21.006;2023-04-24T03:51:24;8.76;69.54
68128;SHT30;54931;52.098;21.006;2023-04-24T03:53:52;8.80;69.78
68128;SHT30;54931;52.098;21.006;2023-04-24T03:56:19;8.86;69.88
68128;SHT30;54931;52.098;21.006;2023-04-24T03:58:47;8.95;69.90
68128;SHT30;54931;52.098;21.006;2023-04-24T04:01:15;9.04;69.93
68128;SHT30;54931;52.098;21.006;2023-04-24T04:03:43;9.18;69.87
68128;SHT30;54931;52.098;21.006;2023-04-24T04:06:10;9.35;69.72
68128;SHT30;54931;52.098;21.006;2023-04-24T04:08:40;9.53;69.40
68128;SHT30;54931;52.098;21.006;2023-04-24T04:11:07;9.67;69.00
68128;SHT30;54931;52.098;21.006;2023-04-24T04:13:35;9.79;68.68
68128;SHT30;54931;52.098;21.006;2023-04-24T04:16:02;9.93;68.25
68128;SHT30;54931;52.098;21.006;2023-04-24T04:18:30;10.10;67.77
68128;SHT30;54931;52.098;21.006;2023-04-24T04:20:58;10.23;67.41
68128;SHT30;54931;52.098;21.006;2023-04-24T04:23:25;10.34;67.08
68128;SHT30;54931;52.098;21.006;2023-04-24T04:25:53;10.44;66.75
68128;SHT30;54931;52.098;21.006;2023-04-24T04:28:21;10.54;66.46
68128;SHT30;54931;52.098;21.006;2023-04-24T04:30:49;10.64;66.24
68128;SHT30;54931;52.098;21.006;2023-04-24T04:33:21;10.72;65.91
68128;SHT30;54931;52.098;21.006;2023-04-24T04:35:49;10.81;65.68
68128;SHT30;54931;52.098;21.006;2023-04-24T04:38:20;10.91;65.47
68128;SHT30;54931;52.098;21.006;2023-04-24T04:40:47;11.06;65.25
68128;SHT30;54931;52.098;21.006;2023-04-24T04:43:15;11.38;64.62
68128;SHT30;54931;52.098;21.006;2023-04-24T04:45:43;11.68;63.59
68128;SHT30;54931;52.098;21.006;2023-04-24T04:48:11;11.95;62.91
68128;SHT30;54931;52.098;21.006;2023-04-24T04:50:41;12.16;62.37
68128;SHT30;54931;52.098;21.006;2023-04-24T04:53:08;12.38;61.86
68128;SHT30;54931;52.098;21.006;2023-04-24T04:55:37;12.67;60.37
68128;SHT30;54931;52.098;21.006;2023-04-24T04:58:06;12.95;59.94
68128;SHT30;54931;52.098;21.006;2023-04-24T05:00:33;13.28;59.27
68128;SHT30;54931;52.098;21.006;2023-04-24T05:03:04;13.56;58.52
68128;SHT30;54931;52.098;21.006;2023-04-24T05:05:32;13.86;57.77
68128;SHT30;54931;52.098;21.006;2023-04-24T05:08:00;14.09;56.97
68128;SHT30;54931;52.098;21.006;2023-04-24T05:10:27;14.32;56.18
68128;SHT30;54931;52.098;21.006;2023-04-24T05:12:55;14.50;55.23
68128;SHT30;54931;52.098;21.006;2023-04-24T05:15:23;14.62;54.52
68128;SHT30;54931;52.098;21.006;2023-04-24T05:17:51;14.81;54.53
68128;SHT30;54931;52.098;21.006;2023-04-24T05:20:18;15.06;54.32
68128;SHT30;54931;52.098;21.006;2023-04-24T05:22:46;15.38;53.22
68128;SHT30;54931;52.098;21.006;2023-04-24T05:25:13;15.57;52.67
68128;SHT30;54931;52.098;21.006;2023-04-24T05:27:42;15.74;51.94
68128;SHT30;54931;52.098;21.006;2023-04-24T05:30:09;15.91;51.44
68128;SHT30;54931;52.098;21.006;2023-04-24T05:32:37;16.13;51.12
68128;SHT30;54931;52.098;21.006;2023-04-24T05:35:05;16.37;50.54
68128;SHT30;54931;52.098;21.006;2023-04-24T05:37:34;16.52;49.89
68128;SHT30;54931;52.098;21.006;2023-04-24T05:40:02;16.87;49.86
68128;SHT30;54931;52.098;21.006;2023-04-24T05:42:32;17.21;48.93
68128;SHT30;54931;52.098;21.006;2023-04-24T05:44:59;17.53;48.41
68128;SHT30;54931;52.098;21.006;2023-04-24T05:47:27;17.80;47.79
68128;SHT30;54931;52.098;21.006;2023-04-24T05:49:57;18.09;47.56
68128;SHT30;54931;52.098;21.006;2023-04-24T05:52:25;18.25;46.29
68128;SHT30;54931;52.098;21.006;2023-04-24T05:54:52;18.33;46.03
68128;SHT30;54931;52.098;21.006;2023-04-24T05:57:20;18.45;45.95
68128;SHT30;54931;52.098;21.006;2023-04-24T05:59:47;18.53;45.22
68128;SHT30;54931;52.098;21.006;2023-04-24T06:02:15;18.60;45.39
68128;SHT30;54931;52.098;21.006;2023-04-24T06:04:44;18.81;44.96
68128;SHT30;54931;52.098;21.006;2023-04-24T06:07:14;18.84;44.13
68128;SHT30;54931;52.098;21.006;2023-04-24T06:09:41;18.87;44.40
68128;SHT30;54931;52.098;21.006;2023-04-24T06:12:09;19.12;44.56
68128;SHT30;54931;52.098;21.006;2023-04-24T06:14:36;19.31;43.55
68128;SHT30;54931;52.098;21.006;2023-04-24T06:17:04;19.29;43.24
68128;SHT30;54931;52.098;21.006;2023-04-24T06:19:32;19.43;43.81
68128;SHT30;54931;52.098;21.006;2023-04-24T06:22:00;19.50;43.07
68128;SHT30;54931;52.098;21.006;2023-04-24T06:24:28;19.49;43.18
68128;SHT30;54931;52.098;21.006;2023-04-24T06:26:56;19.64;43.45
68128;SHT30;54931;52.098;21.006;2023-04-24T06:29:26;19.78;42.96
68128;SHT30;54931;52.098;21.006;2023-04-24T06:31:54;19.84;43.08
68128;SHT30;54931;52.098;21.006;2023-04-24T06:34:21;20.05;43.12
68128;SHT30;54931;52.098;21.006;2023-04-24T06:36:49;20.18;42.69
68128;SHT30;54931;52.098;21.006;2023-04-24T06:39:17;20.34;42.38
68128;SHT30;54931;52.098;21.006;2023-04-24T06:41:45;20.62;42.14
68128;SHT30;54931;52.098;21.006;2023-04-24T06:44:12;20.88;42.19
68128;SHT30;54931;52.098;21.006;2023-04-24T06:46:41;21.01;40.89
68128;SHT30;54931;52.098;21.006;2023-04-24T06:49:09;20.80;40.87
68128;SHT30;54931;52.098;21.006;2023-04-24T06:51:36;20.15;41.69
68128;SHT30;54931;52.098;21.006;2023-04-24T06:54:04;19.79;42.71
68128;SHT30;54931;52.098;21.006;2023-04-24T06:56:31;19.82;42.90
68128;SHT30;54931;52.098;21.006;2023-04-24T06:59:01;19.90;43.06
68128;SHT30;54931;52.098;21.006;2023-04-24T07:01:28;19.91;43.05
68128;SHT30;54931;52.098;21.006;2023-04-24T07:03:56;19.82;43.08
68128;SHT30;54931;52.098;21.006;2023-04-24T07:06:23;19.86;43.13
68128;SHT30;54931;52.098;21.006;2023-04-24T07:08:51;20.08;42.93
68128;SHT30;54931;52.098;21.006;2023-04-24T07:11:18;20.53;41.98
68128;SHT30;54931;52.098;21.006;2023-04-24T07:13:46;20.92;41.38
68128;SHT30;54931;52.098;21.006;2023-04-24T07:16:14;20.93;41.29
68128;SHT30;54931;52.098;21.006;2023-04-24T07:18:42;20.94;41.62
68128;SHT30;54931;52.098;21.006;2023-04-24T07:21:09;21.45;41.37
68128;SHT30;54931;52.098;21.006;2023-04-24T07:23:37;21.54;40.39
68128;SHT30;54931;52.098;21.006;2023-04-24T07:26:04;21.74;40.16
68128;SHT30;54931;52.098;21.006;2023-04-24T07:28:32;22.10;39.97
68128;SHT30;54931;52.098;21.006;2023-04-24T07:30:59;22.51;39.63
68128;SHT30;54931;52.098;21.006;2023-04-24T07:33:27;22.85;39.44
68128;SHT30;54931;52.098;21.006;2023-04-24T07:35:54;22.95;38.98
68128;SHT30;54931;52.098;21.006;2023-04-24T07:38:22;22.82;39.07
68128;SHT30;54931;52.098;21.006;2023-04-24T07:40:49;22.55;39.22
68128;SHT30;54931;52.098;21.006;2023-04-24T07:43:17;22.41;39.60
68128;SHT30;54931;52.098;21.006;2023-04-24T07:45:48;22.70;39.49
68128;SHT30;54931;52.098;21.006;2023-04-24T07:48:15;23.08;38.94
68128;SHT30;54931;52.098;21.006;2023-04-24T07:50:45;23.52;37.76
68128;SHT30;54931;52.098;21.006;2023-04-24T07:53:12;23.85;38.04
68128;SHT30;54931;52.098;21.006;2023-04-24T07:55:40;24.31;37.66
68128;SHT30;54931;52.098;21.006;2023-04-24T07:58:07;24.70;36.62
68128;SHT30;54931;52.098;21.006;2023-04-24T08:00:35;24.91;36.42
68128;SHT30;54931;52.098;21.006;2023-04-24T08:03:02;24.90;35.23
68128;SHT30;54931;52.098;21.006;2023-04-24T08:05:30;25.03;36.08
68128;SHT30;54931;52.098;21.006;2023-04-24T08:07:58;25.39;36.31
68128;SHT30;54931;52.098;21.006;2023-04-24T08:10:26;25.86;36.17
68128;SHT30;54931;52.098;21.006;2023-04-24T08:12:53;26.06;35.61
68128;SHT30;54931;52.098;21.006;2023-04-24T08:15:22;25.74;35.76
68128;SHT30;54931;52.098;21.006;2023-04-24T08:17:49;25.37;36.49
68128;SHT30;54931;52.098;21.006;2023-04-24T08:20:17;25.11;36.50
68128;SHT30;54931;52.098;21.006;2023-04-24T08:22:45;24.76;37.36
68128;SHT30;54931;52.098;21.006;2023-04-24T08:25:14;24.42;38.10
68128;SHT30;54931;52.098;21.006;2023-04-24T08:27:41;24.16;38.02
68128;SHT30;54931;52.098;21.006;2023-04-24T08:30:10;23.90;38.59
68128;SHT30;54931;52.098;21.006;2023-04-24T08:32:38;23.61;38.00
68128;SHT30;54931;52.098;21.006;2023-04-24T08:35:06;23.03;38.15
68128;SHT30;54931;52.098;21.006;2023-04-24T08:37:36;22.66;39.15
68128;SHT30;54931;52.098;21.006;2023-04-24T08:40:06;22.57;39.17
68128;SHT30;54931;52.098;21.006;2023-04-24T08:42:43;22.72;39.65
68128;SHT30;54931;52.098;21.006;2023-04-24T08:45:12;22.90;39.28
68128;SHT30;54931;52.098;21.006;2023-04-24T08:47:41;23.48;39.33
68128;SHT30;54931;52.098;21.006;2023-04-24T08:50:11;24.27;37.39
68128;SHT30;54931;52.098;21.006;2023-04-24T08:52:39;25.00;36.85
68128;SHT30;54931;52.098;21.006;2023-04-24T08:55:09;25.57;33.09
68128;SHT30;54931;52.098;21.006;2023-04-24T08:57:38;25.83;33.39
68128;SHT30;54931;52.098;21.006;2023-04-24T09:00:07;26.17;32.85
68128;SHT30;54931;52.098;21.006;2023-04-24T09:02:36;26.38;33.31
68128;SHT30;54931;52.098;21.006;2023-04-24T09:05:08;26.35;33.72
68128;SHT30;54931;52.098;21.006;2023-04-24T09:07:37;26.35;34.25
68128;SHT30;54931;52.098;21.006;2023-04-24T09:10:11;26.25;32.79
68128;SHT30;54931;52.098;21.006;2023-04-24T09:12:39;26.04;33.49
68128;SHT30;54931;52.098;21.006;2023-04-24T09:15:08;26.14;33.50
68128;SHT30;54931;52.098;21.006;2023-04-24T09:17:37;26.42;33.14
68128;SHT30;54931;52.098;21.006;2023-04-24T09:20:06;26.64;32.47
68128;SHT30;54931;52.098;21.006;2023-04-24T09:22:34;26.65;31.61
68128;SHT30;54931;52.098;21.006;2023-04-24T09:25:04;26.81;31.93
68128;SHT30;54931;52.098;21.006;2023-04-24T09:27:36;27.00;32.02
68128;SHT30;54931;52.098;21.006;2023-04-24T09:30:09;26.84;31.45
68128;SHT30;54931;52.098;21.006;2023-04-24T09:32:38;26.67;32.37
68128;SHT30;54931;52.098;21.006;2023-04-24T09:35:07;26.83;32.00
68128;SHT30;54931;52.098;21.006;2023-04-24T09:37:46;26.92;31.28
68128;SHT30;54931;52.098;21.006;2023-04-24T09:40:17;26.88;31.53
68128;SHT30;54931;52.098;21.006;2023-04-24T09:42:54;26.88;31.34
68128;SHT30;54931;52.098;21.006;2023-04-24T09:45:27;26.85;31.13
68128;SHT30;54931;52.098;21.006;2023-04-24T09:48:02;26.73;30.07
68128;SHT30;54931;52.098;21.006;2023-04-24T09:50:31;26.37;31.73
68128;SHT30;54931;52.098;21.006;2023-04-24T09:53:03;26.09;32.48
68128;SHT30;54931;52.098;21.006;2023-04-24T09:55:32;26.15;32.90
68128;SHT30;54931;52.098;21.006;2023-04-24T09:58:00;26.24;32.97
68128;SHT30;54931;52.098;21.006;2023-04-24T10:00:32;26.62;33.34
68128;SHT30;54931;52.098;21.006;2023-04-24T10:03:01;27.04;33.18
68128;SHT30;54931;52.098;21.006;2023-04-24T10:05:34;27.34;31.90
68128;SHT30;54931;52.098;21.006;2023-04-24T10:08:08;27.48;31.42
68128;SHT30;54931;52.098;21.006;2023-04-24T10:10:43;27.48;30.19
68128;SHT30;54931;52.098;21.006;2023-04-24T10:13:13;27.35;29.80
68128;SHT30;54931;52.098;21.006;2023-04-24T10:15:44;26.98;30.15
68128;SHT30;54931;52.098;21.006;2023-04-24T10:18:16;26.87;30.29
68128;SHT30;54931;52.098;21.006;2023-04-24T10:20:47;26.93;31.15
68128;SHT30;54931;52.098;21.006;2023-04-24T10:23:15;27.12;30.59
68128;SHT30;54931;52.098;21.006;2023-04-24T10:25:46;27.05;30.48
68128;SHT30;54931;52.098;21.006;2023-04-24T10:28:16;27.02;30.33
68128;SHT30;54931;52.098;21.006;2023-04-24T10:30:46;27.32;30.54
68128;SHT30;54931;52.098;21.006;2023-04-24T10:33:15;27.53;30.34
68128;SHT30;54931;52.098;21.006;2023-04-24T10:35:45;27.61;30.37
68128;SHT30;54931;52.098;21.006;2023-04-24T10:38:22;27.55;29.36
68128;SHT30;54931;52.098;21.006;2023-04-24T10:41:09;27.30;29.70
68128;SHT30;54931;52.098;21.006;2023-04-24T10:43:47;26.97;29.63
68128;SHT30;54931;52.098;21.006;2023-04-24T10:46:37;26.77;30.03
68128;SHT30;54931;52.098;21.006;2023-04-24T10:49:07;26.46;29.38
68128;SHT30;54931;52.098;21.006;2023-04-24T10:51:51;26.47;30.00
68128;SHT30;54931;52.098;21.006;2023-04-24T10:54:25;26.32;29.11
68128;SHT30;54931;52.098;21.006;2023-04-24T10:59:50;26.22;29.56
68128;SHT30;54931;52.098;21.006;2023-04-24T11:02:38;26.42;28.77
68128;SHT30;54931;52.098;21.006;2023-04-24T11:05:10;26.37;28.39
68128;SHT30;54931;52.098;21.006;2023-04-24T11:10:46;26.02;29.13
68128;SHT30;54931;52.098;21.006;2023-04-24T11:13:27;26.11;29.39
68128;SHT30;54931;52.098;21.006;2023-04-24T11:16:54;26.15;29.60
68128;SHT30;54931;52.098;21.006;2023-04-24T11:19:25;26.33;29.79
68128;SHT30;54931;52.098;21.006;2023-04-24T11:27:20;25.63;29.21
68128;SHT30;54931;52.098;21.006;2023-04-24T11:29:51;25.57;30.34
68128;SHT30;54931;52.098;21.006;2023-04-24T11:32:36;25.59;30.47
68128;SHT30;54931;52.098;21.006;2023-04-24T11:35:13;25.65;29.37
68128;SHT30;54931;52.098;21.006;2023-04-24T11:37:44;25.80;29.71
68128;SHT30;54931;52.098;21.006;2023-04-24T11:40:16;25.89;30.44
68128;SHT30;54931;52.098;21.006;2023-04-24T11:42:47;25.94;29.69
68128;SHT30;54931;52.098;21.006;2023-04-24T11:45:24;25.96;29.25
68128;SHT30;54931;52.098;21.006;2023-04-24T11:47:54;25.99;29.53
68128;SHT30;54931;52.098;21.006;2023-04-24T11:50:22;25.90;29.97
68128;SHT30;54931;52.098;21.006;2023-04-24T11:52:55;25.83;30.22
68128;SHT30;54931;52.098;21.006;2023-04-24T11:55:24;25.78;30.73
68128;SHT30;54931;52.098;21.006;2023-04-24T11:57:56;25.79;30.45
68128;SHT30;54931;52.098;21.006;2023-04-24T12:00:30;25.73;30.29
68128;SHT30;54931;52.098;21.006;2023-04-24T12:03:03;25.58;30.86
68128;SHT30;54931;52.098;21.006;2023-04-24T12:05:40;25.59;30.30
68128;SHT30;54931;52.098;21.006;2023-04-24T12:08:08;25.74;29.35
68128;SHT30;54931;52.098;21.006;2023-04-24T12:10:35;26.04;28.90
68128;SHT30;54931;52.098;21.006;2023-04-24T12:13:03;26.13;28.61
68128;SHT30;54931;52.098;21.006;2023-04-24T12:15:30;26.15;28.71
68128;SHT30;54931;52.098;21.006;2023-04-24T12:17:58;25.90;29.55
68128;SHT30;54931;52.098;21.006;2023-04-24T12:20:29;25.88;29.84
68128;SHT30;54931;52.098;21.006;2023-04-24T12:23:00;25.87;30.09
68128;SHT30;54931;52.098;21.006;2023-04-24T12:25:31;25.63;30.16
68128;SHT30;54931;52.098;21.006;2023-04-24T12:30:31;24.25;32.43
68128;SHT30;54931;52.098;21.006;2023-04-24T12:33:06;23.57;33.81
68128;SHT30;54931;52.098;21.006;2023-04-24T12:35:34;23.36;34.56
68128;SHT30;54931;52.098;21.006;2023-04-24T12:38:08;23.18;34.72
68128;SHT30;54931;52.098;21.006;2023-04-24T12:40:41;23.07;35.49
68128;SHT30;54931;52.098;21.006;2023-04-24T12:43:19;23.13;35.84
68128;SHT30;54931;52.098;21.006;2023-04-24T12:45:47;23.21;36.34
68128;SHT30;54931;52.098;21.006;2023-04-24T12:48:16;23.40;36.27
68128;SHT30;54931;52.098;21.006;2023-04-24T12:50:43;23.60;36.18
68128;SHT30;54931;52.098;21.006;2023-04-24T12:53:11;23.68;34.80
68128;SHT30;54931;52.098;21.006;2023-04-24T12:55:43;23.65;35.62
68128;SHT30;54931;52.098;21.006;2023-04-24T12:58:12;23.73;35.54
68128;SHT30;54931;52.098;21.006;2023-04-24T13:00:41;23.75;34.76
68128;SHT30;54931;52.098;21.006;2023-04-24T13:03:10;23.74;34.85
68128;SHT30;54931;52.098;21.006;2023-04-24T13:05:38;23.76;33.82
68128;SHT30;54931;52.098;21.006;2023-04-24T13:08:06;23.56;35.21
68128;SHT30;54931;52.098;21.006;2023-04-24T13:10:34;23.30;35.03
68128;SHT30;54931;52.098;21.006;2023-04-24T13:13:02;23.06;35.24
68128;SHT30;54931;52.098;21.006;2023-04-24T13:15:30;22.87;36.20
68128;SHT30;54931;52.098;21.006;2023-04-24T13:17:58;22.85;36.91
68128;SHT30;54931;52.098;21.006;2023-04-24T13:20:25;23.16;36.65
68128;SHT30;54931;52.098;21.006;2023-04-24T13:22:53;23.52;36.34
68128;SHT30;54931;52.098;21.006;2023-04-24T13:25:20;23.90;35.12
68128;SHT30;54931;52.098;21.006;2023-04-24T13:27:49;24.01;33.50
68128;SHT30;54931;52.098;21.006;2023-04-24T13:30:17;23.63;33.77
68128;SHT30;54931;52.098;21.006;2023-04-24T13:32:46;23.03;34.49
68128;SHT30;54931;52.098;21.006;2023-04-24T13:35:14;22.41;35.90
68128;SHT30;54931;52.098;21.006;2023-04-24T13:37:42;21.78;37.20
68128;SHT30;54931;52.098;21.006;2023-04-24T13:40:09;21.27;37.89
68128;SHT30;54931;52.098;21.006;2023-04-24T13:42:39;20.91;37.14
68128;SHT30;54931;52.098;21.006;2023-04-24T13:45:08;20.60;37.20
68128;SHT30;54931;52.098;21.006;2023-04-24T13:47:37;20.42;38.81
68128;SHT30;54931;52.098;21.006;2023-04-24T13:50:08;20.21;40.06
68128;SHT30;54931;52.098;21.006;2023-04-24T13:52:36;20.01;40.21
68128;SHT30;54931;52.098;21.006;2023-04-24T13:55:04;19.94;39.58
68128;SHT30;54931;52.098;21.006;2023-04-24T13:57:33;20.02;39.78
68128;SHT30;54931;52.098;21.006;2023-04-24T14:00:01;20.15;39.52
68128;SHT30;54931;52.098;21.006;2023-04-24T14:02:31;20.35;39.89
68128;SHT30;54931;52.098;21.006;2023-04-24T14:04:58;20.66;39.78
68128;SHT30;54931;52.098;21.006;2023-04-24T14:07:26;20.94;38.27
68128;SHT30;54931;52.098;21.006;2023-04-24T14:09:55;21.21;37.33
68128;SHT30;54931;52.098;21.006;2023-04-24T14:12:23;21.51;36.99
68128;SHT30;54931;52.098;21.006;2023-04-24T14:14:51;21.96;36.37
68128;SHT30;54931;52.098;21.006;2023-04-24T14:17:19;22.65;34.79
68128;SHT30;54931;52.098;21.006;2023-04-24T14:19:46;23.29;32.66
68128;SHT30;54931;52.098;21.006;2023-04-24T14:22:14;24.03;31.96
68128;SHT30;54931;52.098;21.006;2023-04-24T14:24:42;24.50;28.85
68128;SHT30;54931;52.098;21.006;2023-04-24T14:27:10;24.94;29.18
68128;SHT30;54931;52.098;21.006;2023-04-24T14:29:38;25.39;27.30
68128;SHT30;54931;52.098;21.006;2023-04-24T14:32:05;25.59;28.00
68128;SHT30;54931;52.098;21.006;2023-04-24T14:34:33;25.57;25.96
68128;SHT30;54931;52.098;21.006;2023-04-24T14:37:01;25.34;26.58
68128;SHT30;54931;52.098;21.006;2023-04-24T14:39:29;25.40;27.13
68128;SHT30;54931;52.098;21.006;2023-04-24T14:41:56;25.29;26.00
68128;SHT30;54931;52.098;21.006;2023-04-24T14:44:24;25.16;26.82
68128;SHT30;54931;52.098;21.006;2023-04-24T14:46:52;24.97;26.83
68128;SHT30;54931;52.098;21.006;2023-04-24T14:49:20;24.87;27.73
68128;SHT30;54931;52.098;21.006;2023-04-24T14:51:47;24.81;28.41
68128;SHT30;54931;52.098;21.006;2023-04-24T14:54:15;24.76;28.27
68128;SHT30;54931;52.098;21.006;2023-04-24T14:56:43;24.94;27.88
68128;SHT30;54931;52.098;21.006;2023-04-24T14:59:11;25.11;27.64
68128;SHT30;54931;52.098;21.006;2023-04-24T15:01:38;25.32;26.97
68128;SHT30;54931;52.098;21.006;2023-04-24T15:04:06;25.59;27.12
68128;SHT30;54931;52.098;21.006;2023-04-24T15:06:34;25.84;26.58
68128;SHT30;54931;52.098;21.006;2023-04-24T15:09:01;25.93;26.90
68128;SHT30;54931;52.098;21.006;2023-04-24T15:11:29;25.81;26.89
68128;SHT30;54931;52.098;21.006;2023-04-24T15:13:57;25.79;26.73
68128;SHT30;54931;52.098;21.006;2023-04-24T15:16:25;25.66;26.71
68128;SHT30;54931;52.098;21.006;2023-04-24T15:18:52;25.46;27.34
68128;SHT30;54931;52.098;21.006;2023-04-24T15:21:20;25.29;27.71
68128;SHT30;54931;52.098;21.006;2023-04-24T15:23:48;25.23;27.48
68128;SHT30;54931;52.098;21.006;2023-04-24T15:26:16;25.27;27.69
68128;SHT30;54931;52.098;21.006;2023-04-24T15:28:45;25.23;27.82
68128;SHT30;54931;52.098;21.006;2023-04-24T15:31:13;25.00;27.62
68128;SHT30;54931;52.098;21.006;2023-04-24T15:33:41;24.71;28.15
68128;SHT30;54931;52.098;21.006;2023-04-24T15:36:09;24.40;29.04
68128;SHT30;54931;52.098;21.006;2023-04-24T15:38:37;24.45;29.37
68128;SHT30;54931;52.098;21.006;2023-04-24T15:41:05;24.73;28.80
68128;SHT30;54931;52.098;21.006;2023-04-24T15:43:33;25.08;28.41